sensor_id;sensor_type;location;lat;lon;timestamp;temperature;humidity
7290;DHT22;63176;52.678;13.250;2024-02-16T00:00:24;10.50;1.00
7290;DHT22;63176;52.678;13.250;2024-02-16T00:02:50;10.50;1.00
7290;DHT22;63176;52.678;13.250;2024-02-16T00:05:16;10.50;1.00
7290;DHT22;63176;52.678;13.250;2024-02-16T00:07:42;10.40;1.00
7290;DHT22;63176;52.678;13.250;2024-02-16T00:10:08;10.50;1.00
7290;DHT22;63176;52.678;13.250;2024-02-16T00:12:35;10.50;1.00
7290;DHT22;63176;52.678;13.250;2024-02-16T00:15:02;10.50;1.00
7290;DHT22;63176;52.678;13.250;2024-02-16T00:17:27;10.50;1.00
7290;DHT22;63176;52.678;13.250;2024-02-16T00:19:54;10.50;1.00
7290;DHT22;63176;52.678;13.250;2024-02-16T00:22:20;10.40;1.00
7290;DHT22;63176;52.678;13.250;2024-02-16T00:24:46;10.40;1.00
7290;DHT22;63176;52.678;13.250;2024-02-16T00:27:12;10.40;1.00
7290;DHT22;63176;52.678;13.250;2024-02-16T00:29:39;10.40;1.00
7290;DHT22;63176;52.678;13.250;2024-02-16T00:32:05;10.30;1.00
7290;DHT22;63176;52.678;13.250;2024-02-16T00:34:35;10.30;1.00
7290;DHT22;63176;52.678;13.250;2024-02-16T00:37:01;10.30;1.00
7290;DHT22;63176;52.678;13.250;2024-02-16T00:39:26;10.30;1.00
7290;DHT22;63176;52.678;13.250;2024-02-16T00:41:52;10.30;1.00
7290;DHT22;63176;52.678;13.250;2024-02-16T00:44:18;10.20;1.00
7290;DHT22;63176;52.678;13.250;2024-02-16T00:46:44;10.20;1.00
7290;DHT22;63176;52.678;13.250;2024-02-16T00:49:10;10.20;1.00
7290;DHT22;63176;52.678;13.250;2024-02-16T00:51:37;10.20;1.00
7290;DHT22;63176;52.678;13.250;2024-02-16T00:54:03;10.20;1.00
7290;DHT22;63176;52.678;13.250;2024-02-16T00:56:32;10.20;1.00
7290;DHT22;63176;52.678;13.250;2024-02-16T00:58:58;10.20;1.00
7290;DHT22;63176;52.678;13.250;2024-02-16T01:01:24;10.20;1.00
7290;DHT22;63176;52.678;13.250;2024-02-16T01:03:52;10.20;1.00
7290;DHT22;63176;52.678;13.250;2024-02-16T01:06:18;10.10;1.00
7290;DHT22;63176;52.678;13.250;2024-02-16T01:08:44;10.10;1.00
7290;DHT22;63176;52.678;13.250;2024-02-16T01:11:10;10.10;1.00
7290;DHT22;63176;52.678;13.250;2024-02-16T01:13:36;10.00;1.00
7290;DHT22;63176;52.678;13.250;2024-02-16T01:16:03;9.90;1.00
7290;DHT22;63176;52.678;13.250;2024-02-16T01:18:29;10.00;1.00
7290;DHT22;63176;52.678;13.250;2024-02-16T01:20:55;10.00;1.00
7290;DHT22;63176;52.678;13.250;2024-02-16T01:23:21;10.00;1.00
7290;DHT22;63176;52.678;13.250;2024-02-16T01:25:47;10.00;1.00
7290;DHT22;63176;52.678;13.250;2024-02-16T01:28:13;10.00;1.00
7290;DHT22;63176;52.678;13.250;2024-02-16T01:30:39;9.90;1.00
7290;DHT22;63176;52.678;13.250;2024-02-16T01:33:06;9.90;1.00
7290;DHT22;63176;52.678;13.250;2024-02-16T01:35:33;9.80;1.00
7290;DHT22;63176;52.678;13.250;2024-02-16T01:37:58;9.80;1.00
7290;DHT22;63176;52.678;13.250;2024-02-16T01:40:24;9.90;1.00
7290;DHT22;63176;52.678;13.250;2024-02-16T01:42:51;9.80;1.00
7290;DHT22;63176;52.678;13.250;2024-02-16T01:45:18;9.80;1.00
7290;DHT22;63176;52.678;13.250;2024-02-16T01:47:46;9.80;1.00
7290;DHT22;63176;52.678;13.250;2024-02-16T01:50:15;9.80;1.00
7290;DHT22;63176;52.678;13.250;2024-02-16T01:52:42;9.80;1.00
7290;DHT22;63176;52.678;13.250;2024-02-16T01:55:09;9.80;1.00
7290;DHT22;63176;52.678;13.250;2024-02-16T01:57:36;9.80;1.00
7290;DHT22;63176;52.678;13.250;2024-02-16T02:00:02;9.80;1.00
7290;DHT22;63176;52.678;13.250;2024-02-16T02:02:28;9.80;1.00
7290;DHT22;63176;52.678;13.250;2024-02-16T02:04:54;9.80;1.00
7290;DHT22;63176;52.678;13.250;2024-02-16T02:07:25;9.80;1.00
7290;DHT22;63176;52.678;13.250;2024-02-16T02:09:54;9.80;1.00
7290;DHT22;63176;52.678;13.250;2024-02-16T02:12:20;9.90;1.00
7290;DHT22;63176;52.678;13.250;2024-02-16T02:14:46;9.90;1.00
7290;DHT22;63176;52.678;13.250;2024-02-16T02:17:12;9.90;1.00
7290;DHT22;63176;52.678;13.250;2024-02-16T02:19:38;9.90;1.00
7290;DHT22;63176;52.678;13.250;2024-02-16T02:22:08;10.00;1.00
7290;DHT22;63176;52.678;13.250;2024-02-16T02:24:34;10.00;1.00
7290;DHT22;63176;52.678;13.250;2024-02-16T02:27:00;10.00;1.00
7290;DHT22;63176;52.678;13.250;2024-02-16T02:29:25;10.00;1.00
7290;DHT22;63176;52.678;13.250;2024-02-16T02:31:51;10.00;1.00
7290;DHT22;63176;52.678;13.250;2024-02-16T02:34:17;10.00;1.00
7290;DHT22;63176;52.678;13.250;2024-02-16T02:36:42;10.00;1.00
7290;DHT22;63176;52.678;13.250;2024-02-16T02:39:09;10.00;1.00
7290;DHT22;63176;52.678;13.250;2024-02-16T02:41:36;10.00;1.00
7290;DHT22;63176;52.678;13.250;2024-02-16T02:44:01;10.00;1.00
7290;DHT22;63176;52.678;13.250;2024-02-16T02:46:27;10.00;1.00
7290;DHT22;63176;52.678;13.250;2024-02-16T02:48:53;10.00;1.00
7290;DHT22;63176;52.678;13.250;2024-02-16T02:51:18;10.00;1.00
7290;DHT22;63176;52.678;13.250;2024-02-16T02:53:44;10.00;1.00
7290;DHT22;63176;52.678;13.250;2024-02-16T02:56:10;10.00;1.00
7290;DHT22;63176;52.678;13.250;2024-02-16T02:58:35;9.90;1.00
7290;DHT22;63176;52.678;13.250;2024-02-16T03:01:01;9.90;1.00
7290;DHT22;63176;52.678;13.250;2024-02-16T03:03:27;9.90;1.00
7290;DHT22;63176;52.678;13.250;2024-02-16T03:05:53;9.90;1.00
7290;DHT22;63176;52.678;13.250;2024-02-16T03:08:19;9.90;1.00
7290;DHT22;63176;52.678;13.250;2024-02-16T03:10:45;9.90;1.00
7290;DHT22;63176;52.678;13.250;2024-02-16T03:13:11;9.90;1.00
7290;DHT22;63176;52.678;13.250;2024-02-16T03:15:38;9.90;1.00
7290;DHT22;63176;52.678;13.250;2024-02-16T03:18:05;9.80;1.00
7290;DHT22;63176;52.678;13.250;2024-02-16T03:20:34;9.80;1.00
7290;DHT22;63176;52.678;13.250;2024-02-16T03:23:01;9.80;1.00
7290;DHT22;63176;52.678;13.250;2024-02-16T03:25:26;9.80;1.00
7290;DHT22;63176;52.678;13.250;2024-02-16T03:27:52;9.80;1.00
7290;DHT22;63176;52.678;13.250;2024-02-16T03:30:21;9.80;1.00
7290;DHT22;63176;52.678;13.250;2024-02-16T03:32:50;9.80;1.00
7290;DHT22;63176;52.678;13.250;2024-02-16T03:35:16;9.80;1.00
7290;DHT22;63176;52.678;13.250;2024-02-16T03:37:42;9.80;1.00
7290;DHT22;63176;52.678;13.250;2024-02-16T03:40:08;9.80;1.00
7290;DHT22;63176;52.678;13.250;2024-02-16T03:42:35;9.80;1.00
7290;DHT22;63176;52.678;13.250;2024-02-16T03:45:02;9.80;1.00
7290;DHT22;63176;52.678;13.250;2024-02-16T03:47:28;9.80;1.00
7290;DHT22;63176;52.678;13.250;2024-02-16T03:49:53;9.80;1.00
7290;DHT22;63176;52.678;13.250;2024-02-16T03:52:19;9.80;1.00
7290;DHT22;63176;52.678;13.250;2024-02-16T03:54:45;9.80;1.00
7290;DHT22;63176;52.678;13.250;2024-02-16T03:57:14;9.80;1.00
7290;DHT22;63176;52.678;13.250;2024-02-16T03:59:45;9.80;1.00
7290;DHT22;63176;52.678;13.250;2024-02-16T04:02:11;9.80;1.00
7290;DHT22;63176;52.678;13.250;2024-02-16T04:04:39;9.80;1.00
7290;DHT22;63176;52.678;13.250;2024-02-16T04:07:04;9.80;1.00
7290;DHT22;63176;52.678;13.250;2024-02-16T04:09:32;9.80;1.00
7290;DHT22;63176;52.678;13.250;2024-02-16T04:11:58;9.80;1.00
7290;DHT22;63176;52.678;13.250;2024-02-16T04:14:24;9.90;1.00
7290;DHT22;63176;52.678;13.250;2024-02-16T04:16:49;9.90;1.00
7290;DHT22;63176;52.678;13.250;2024-02-16T04:19:15;9.80;1.00
7290;DHT22;63176;52.678;13.250;2024-02-16T04:21:41;9.90;1.00
7290;DHT22;63176;52.678;13.250;2024-02-16T04:24:07;9.90;1.00
7290;DHT22;63176;52.678;13.250;2024-02-16T04:26:33;9.90;1.00
7290;DHT22;63176;52.678;13.250;2024-02-16T04:28:59;9.90;1.00
7290;DHT22;63176;52.678;13.250;2024-02-16T04:31:24;9.90;1.00
7290;DHT22;63176;52.678;13.250;2024-02-16T04:33:50;9.90;1.00
7290;DHT22;63176;52.678;13.250;2024-02-16T04:36:16;9.90;1.00
7290;DHT22;63176;52.678;13.250;2024-02-16T04:38:42;9.90;1.00
7290;DHT22;63176;52.678;13.250;2024-02-16T04:41:08;9.90;1.00
7290;DHT22;63176;52.678;13.250;2024-02-16T04:43:34;9.90;1.00
7290;DHT22;63176;52.678;13.250;2024-02-16T04:46:00;9.90;1.00
7290;DHT22;63176;52.678;13.250;2024-02-16T04:48:26;9.80;1.00
7290;DHT22;63176;52.678;13.250;2024-02-16T04:50:51;9.90;1.00
7290;DHT22;63176;52.678;13.250;2024-02-16T04:53:17;9.90;1.00
7290;DHT22;63176;52.678;13.250;2024-02-16T04:55:43;9.90;1.00
7290;DHT22;63176;52.678;13.250;2024-02-16T04:58:08;9.90;1.00
7290;DHT22;63176;52.678;13.250;2024-02-16T05:00:35;9.90;1.00
7290;DHT22;63176;52.678;13.250;2024-02-16T05:03:01;9.80;1.00
7290;DHT22;63176;52.678;13.250;2024-02-16T05:05:26;9.80;1.00
7290;DHT22;63176;52.678;13.250;2024-02-16T05:07:52;9.90;1.00
7290;DHT22;63176;52.678;13.250;2024-02-16T05:10:18;9.90;1.00
7290;DHT22;63176;52.678;13.250;2024-02-16T05:12:45;9.90;1.00
7290;DHT22;63176;52.678;13.250;2024-02-16T05:15:11;9.90;1.00
7290;DHT22;63176;52.678;13.250;2024-02-16T05:17:39;9.90;99.90
7290;DHT22;63176;52.678;13.250;2024-02-16T05:20:14;9.80;99.90
7290;DHT22;63176;52.678;13.250;2024-02-16T05:22:44;9.90;99.90
7290;DHT22;63176;52.678;13.250;2024-02-16T05:25:15;9.80;99.90
7290;DHT22;63176;52.678;13.250;2024-02-16T05:27:41;9.80;99.90
7290;DHT22;63176;52.678;13.250;2024-02-16T05:30:09;9.80;99.90
7290;DHT22;63176;52.678;13.250;2024-02-16T05:32:36;9.80;99.90
7290;DHT22;63176;52.678;13.250;2024-02-16T05:35:06;9.80;99.90
7290;DHT22;63176;52.678;13.250;2024-02-16T05:37:47;9.70;99.90
7290;DHT22;63176;52.678;13.250;2024-02-16T05:40:19;9.70;99.90
7290;DHT22;63176;52.678;13.250;2024-02-16T05:42:55;9.70;99.90
7290;DHT22;63176;52.678;13.250;2024-02-16T05:45:24;9.70;99.90
7290;DHT22;63176;52.678;13.250;2024-02-16T05:47:51;9.70;99.90
7290;DHT22;63176;52.678;13.250;2024-02-16T05:50:17;9.70;99.90
7290;DHT22;63176;52.678;13.250;2024-02-16T05:52:43;9.70;99.90
7290;DHT22;63176;52.678;13.250;2024-02-16T05:55:10;9.70;99.90
7290;DHT22;63176;52.678;13.250;2024-02-16T05:57:36;9.70;99.90
7290;DHT22;63176;52.678;13.250;2024-02-16T06:00:07;9.70;99.90
7290;DHT22;63176;52.678;13.250;2024-02-16T06:02:34;9.60;99.90
7290;DHT22;63176;52.678;13.250;2024-02-16T06:05:00;9.90;99.90
7290;DHT22;63176;52.678;13.250;2024-02-16T06:07:26;9.60;99.90
7290;DHT22;63176;52.678;13.250;2024-02-16T06:09:52;9.60;99.90
7290;DHT22;63176;52.678;13.250;2024-02-16T06:12:19;9.60;99.90
7290;DHT22;63176;52.678;13.250;2024-02-16T06:14:46;9.60;99.90
7290;DHT22;63176;52.678;13.250;2024-02-16T06:17:11;9.70;99.90
7290;DHT22;63176;52.678;13.250;2024-02-16T06:19:40;9.60;99.90
7290;DHT22;63176;52.678;13.250;2024-02-16T06:22:06;9.70;99.90
7290;DHT22;63176;52.678;13.250;2024-02-16T06:24:33;9.70;99.90
7290;DHT22;63176;52.678;13.250;2024-02-16T06:26:59;9.70;99.90
7290;DHT22;63176;52.678;13.250;2024-02-16T06:29:25;9.70;99.90
7290;DHT22;63176;52.678;13.250;2024-02-16T06:31:51;9.70;99.90
7290;DHT22;63176;52.678;13.250;2024-02-16T06:34:18;9.70;99.90
7290;DHT22;63176;52.678;13.250;2024-02-16T06:36:44;9.80;99.90
7290;DHT22;63176;52.678;13.250;2024-02-16T06:39:11;9.70;99.90
7290;DHT22;63176;52.678;13.250;2024-02-16T06:41:42;9.70;99.90
7290;DHT22;63176;52.678;13.250;2024-02-16T06:44:09;9.80;99.90
7290;DHT22;63176;52.678;13.250;2024-02-16T06:46:35;9.80;99.90
7290;DHT22;63176;52.678;13.250;2024-02-16T06:49:00;9.70;99.90
7290;DHT22;63176;52.678;13.250;2024-02-16T06:51:26;9.80;99.90
7290;DHT22;63176;52.678;13.250;2024-02-16T06:53:54;9.70;99.90
7290;DHT22;63176;52.678;13.250;2024-02-16T06:56:20;9.70;99.90
7290;DHT22;63176;52.678;13.250;2024-02-16T06:58:46;9.80;99.90
7290;DHT22;63176;52.678;13.250;2024-02-16T07:01:15;9.80;99.90
7290;DHT22;63176;52.678;13.250;2024-02-16T07:03:43;9.70;99.90
7290;DHT22;63176;52.678;13.250;2024-02-16T07:06:09;9.80;99.90
7290;DHT22;63176;52.678;13.250;2024-02-16T07:08:39;9.70;99.90
7290;DHT22;63176;52.678;13.250;2024-02-16T07:11:05;9.70;99.90
7290;DHT22;63176;52.678;13.250;2024-02-16T07:13:34;9.70;99.90
7290;DHT22;63176;52.678;13.250;2024-02-16T07:16:00;9.70;99.90
7290;DHT22;63176;52.678;13.250;2024-02-16T07:18:26;9.80;99.90
7290;DHT22;63176;52.678;13.250;2024-02-16T07:20:52;9.80;99.90
7290;DHT22;63176;52.678;13.250;2024-02-16T07:23:17;9.80;99.90
7290;DHT22;63176;52.678;13.250;2024-02-16T07:25:43;9.80;99.90
7290;DHT22;63176;52.678;13.250;2024-02-16T07:28:09;9.80;99.90
7290;DHT22;63176;52.678;13.250;2024-02-16T07:30:35;9.80;99.90
7290;DHT22;63176;52.678;13.250;2024-02-16T07:33:04;9.90;99.90
7290;DHT22;63176;52.678;13.250;2024-02-16T07:35:30;10.00;99.90
7290;DHT22;63176;52.678;13.250;2024-02-16T07:37:56;10.00;99.90
7290;DHT22;63176;52.678;13.250;2024-02-16T07:40:21;10.10;99.90
7290;DHT22;63176;52.678;13.250;2024-02-16T07:42:47;10.10;99.90
7290;DHT22;63176;52.678;13.250;2024-02-16T07:45:13;10.20;99.90
7290;DHT22;63176;52.678;13.250;2024-02-16T07:47:41;10.20;99.90
7290;DHT22;63176;52.678;13.250;2024-02-16T07:50:07;10.30;99.90
7290;DHT22;63176;52.678;13.250;2024-02-16T07:52:33;10.40;99.90
7290;DHT22;63176;52.678;13.250;2024-02-16T07:54:59;10.40;99.90
7290;DHT22;63176;52.678;13.250;2024-02-16T07:57:24;10.40;99.90
7290;DHT22;63176;52.678;13.250;2024-02-16T07:59:50;10.50;99.90
7290;DHT22;63176;52.678;13.250;2024-02-16T08:02:16;10.50;99.90
7290;DHT22;63176;52.678;13.250;2024-02-16T08:04:52;10.50;99.90
7290;DHT22;63176;52.678;13.250;2024-02-16T08:07:17;10.60;99.90
7290;DHT22;63176;52.678;13.250;2024-02-16T08:09:47;10.60;99.90
7290;DHT22;63176;52.678;13.250;2024-02-16T08:12:13;10.70;99.90
7290;DHT22;63176;52.678;13.250;2024-02-16T08:14:39;10.70;99.90
7290;DHT22;63176;52.678;13.250;2024-02-16T08:17:06;10.80;99.90
7290;DHT22;63176;52.678;13.250;2024-02-16T08:19:33;10.90;99.90
7290;DHT22;63176;52.678;13.250;2024-02-16T08:22:07;11.00;99.90
7290;DHT22;63176;52.678;13.250;2024-02-16T08:24:36;11.00;99.90
7290;DHT22;63176;52.678;13.250;2024-02-16T08:27:03;11.20;99.90
7290;DHT22;63176;52.678;13.250;2024-02-16T08:29:29;11.20;99.90
7290;DHT22;63176;52.678;13.250;2024-02-16T08:31:55;11.30;99.90
7290;DHT22;63176;52.678;13.250;2024-02-16T08:34:21;11.20;99.90
7290;DHT22;63176;52.678;13.250;2024-02-16T08:36:48;11.20;99.90
7290;DHT22;63176;52.678;13.250;2024-02-16T08:39:15;11.30;99.90
7290;DHT22;63176;52.678;13.250;2024-02-16T08:41:41;11.30;99.90
7290;DHT22;63176;52.678;13.250;2024-02-16T08:44:07;11.30;99.90
7290;DHT22;63176;52.678;13.250;2024-02-16T08:46:36;11.30;99.90
7290;DHT22;63176;52.678;13.250;2024-02-16T08:49:03;11.30;99.90
7290;DHT22;63176;52.678;13.250;2024-02-16T08:51:29;11.40;99.90
7290;DHT22;63176;52.678;13.250;2024-02-16T08:53:55;11.50;99.90
7290;DHT22;63176;52.678;13.250;2024-02-16T08:56:21;11.60;99.90
7290;DHT22;63176;52.678;13.250;2024-02-16T08:58:46;11.70;99.90
7290;DHT22;63176;52.678;13.250;2024-02-16T09:01:12;11.70;99.90
7290;DHT22;63176;52.678;13.250;2024-02-16T09:03:37;11.80;99.90
7290;DHT22;63176;52.678;13.250;2024-02-16T09:06:05;11.80;99.90
7290;DHT22;63176;52.678;13.250;2024-02-16T09:08:34;11.80;99.90
7290;DHT22;63176;52.678;13.250;2024-02-16T09:11:04;11.90;99.90
7290;DHT22;63176;52.678;13.250;2024-02-16T09:13:34;12.00;99.90
7290;DHT22;63176;52.678;13.250;2024-02-16T09:16:02;12.10;99.90
7290;DHT22;63176;52.678;13.250;2024-02-16T09:18:33;12.10;99.90
7290;DHT22;63176;52.678;13.250;2024-02-16T09:20:59;12.20;99.90
7290;DHT22;63176;52.678;13.250;2024-02-16T09:23:26;12.30;99.90
7290;DHT22;63176;52.678;13.250;2024-02-16T09:25:51;12.40;99.90
7290;DHT22;63176;52.678;13.250;2024-02-16T09:28:17;12.50;99.90
7290;DHT22;63176;52.678;13.250;2024-02-16T09:30:47;12.50;99.90
7290;DHT22;63176;52.678;13.250;2024-02-16T09:33:12;12.50;99.90
7290;DHT22;63176;52.678;13.250;2024-02-16T09:35:39;12.60;99.90
7290;DHT22;63176;52.678;13.250;2024-02-16T09:38:05;12.60;99.90
7290;DHT22;63176;52.678;13.250;2024-02-16T09:40:31;12.60;99.90
7290;DHT22;63176;52.678;13.250;2024-02-16T09:42:56;12.60;99.90
7290;DHT22;63176;52.678;13.250;2024-02-16T09:45:24;12.60;99.90
7290;DHT22;63176;52.678;13.250;2024-02-16T09:47:52;12.60;99.90
7290;DHT22;63176;52.678;13.250;2024-02-16T09:50:19;12.60;99.90
7290;DHT22;63176;52.678;13.250;2024-02-16T09:52:50;12.60;99.90
7290;DHT22;63176;52.678;13.250;2024-02-16T09:55:17;12.60;99.90
7290;DHT22;63176;52.678;13.250;2024-02-16T09:57:58;12.60;99.90
7290;DHT22;63176;52.678;13.250;2024-02-16T10:00:24;12.60;99.90
7290;DHT22;63176;52.678;13.250;2024-02-16T10:02:49;12.70;99.90
7290;DHT22;63176;52.678;13.250;2024-02-16T10:05:17;12.70;99.90
7290;DHT22;63176;52.678;13.250;2024-02-16T10:07:43;12.80;99.90
7290;DHT22;63176;52.678;13.250;2024-02-16T10:10:26;12.80;99.90
7290;DHT22;63176;52.678;13.250;2024-02-16T10:13:05;12.80;99.90
7290;DHT22;63176;52.678;13.250;2024-02-16T10:15:32;12.90;99.90
7290;DHT22;63176;52.678;13.250;2024-02-16T10:18:02;13.00;99.90
7290;DHT22;63176;52.678;13.250;2024-02-16T10:20:29;13.20;99.90
7290;DHT22;63176;52.678;13.250;2024-02-16T10:23:09;13.40;99.90
7290;DHT22;63176;52.678;13.250;2024-02-16T10:25:36;13.50;99.90
7290;DHT22;63176;52.678;13.250;2024-02-16T10:28:08;13.60;99.90
7290;DHT22;63176;52.678;13.250;2024-02-16T10:30:40;13.70;99.90
7290;DHT22;63176;52.678;13.250;2024-02-16T10:33:08;13.90;99.90
7290;DHT22;63176;52.678;13.250;2024-02-16T10:35:37;14.00;99.90
7290;DHT22;63176;52.678;13.250;2024-02-16T10:38:06;14.30;99.90
7290;DHT22;63176;52.678;13.250;2024-02-16T10:40:41;14.50;99.90
7290;DHT22;63176;52.678;13.250;2024-02-16T10:43:09;14.50;99.90
7290;DHT22;63176;52.678;13.250;2024-02-16T10:45:36;14.40;99.90
7290;DHT22;63176;52.678;13.250;2024-02-16T10:48:03;14.30;99.90
7290;DHT22;63176;52.678;13.250;2024-02-16T10:50:33;14.20;99.90
7290;DHT22;63176;52.678;13.250;2024-02-16T10:53:09;14.20;99.90
7290;DHT22;63176;52.678;13.250;2024-02-16T10:55:37;14.20;99.90
7290;DHT22;63176;52.678;13.250;2024-02-16T10:58:03;14.20;99.90
7290;DHT22;63176;52.678;13.250;2024-02-16T11:00:29;14.20;99.90
7290;DHT22;63176;52.678;13.250;2024-02-16T11:02:56;14.30;99.90
7290;DHT22;63176;52.678;13.250;2024-02-16T11:08:11;14.40;99.90
7290;DHT22;63176;52.678;13.250;2024-02-16T11:10:36;14.40;99.90
7290;DHT22;63176;52.678;13.250;2024-02-16T11:13:03;14.50;99.90
7290;DHT22;63176;52.678;13.250;2024-02-16T11:15:33;14.50;99.90
7290;DHT22;63176;52.678;13.250;2024-02-16T11:18:03;14.50;99.90
7290;DHT22;63176;52.678;13.250;2024-02-16T11:20:36;14.60;99.90
7290;DHT22;63176;52.678;13.250;2024-02-16T11:23:05;14.70;99.90
7290;DHT22;63176;52.678;13.250;2024-02-16T11:25:33;14.80;99.90
7290;DHT22;63176;52.678;13.250;2024-02-16T11:27:59;14.80;99.90
7290;DHT22;63176;52.678;13.250;2024-02-16T11:30:25;14.80;99.90
7290;DHT22;63176;52.678;13.250;2024-02-16T11:32:51;14.90;99.90
7290;DHT22;63176;52.678;13.250;2024-02-16T11:35:17;14.90;99.90
7290;DHT22;63176;52.678;13.250;2024-02-16T11:37:43;14.80;99.90
7290;DHT22;63176;52.678;13.250;2024-02-16T11:40:13;14.80;99.90
7290;DHT22;63176;52.678;13.250;2024-02-16T11:42:39;14.70;99.90
7290;DHT22;63176;52.678;13.250;2024-02-16T11:45:10;14.60;99.90
7290;DHT22;63176;52.678;13.250;2024-02-16T11:47:37;14.60;99.90
7290;DHT22;63176;52.678;13.250;2024-02-16T11:50:07;14.50;99.90
7290;DHT22;63176;52.678;13.250;2024-02-16T11:52:43;14.50;99.90
7290;DHT22;63176;52.678;13.250;2024-02-16T11:55:09;14.50;99.90
7290;DHT22;63176;52.678;13.250;2024-02-16T11:57:35;14.40;99.90
7290;DHT22;63176;52.678;13.250;2024-02-16T12:00:02;14.40;99.90
7290;DHT22;63176;52.678;13.250;2024-02-16T12:02:36;14.30;99.90
7290;DHT22;63176;52.678;13.250;2024-02-16T12:05:02;14.30;99.90
7290;DHT22;63176;52.678;13.250;2024-02-16T12:07:28;14.20;99.90
7290;DHT22;63176;52.678;13.250;2024-02-16T12:10:02;14.20;99.90
7290;DHT22;63176;52.678;13.250;2024-02-16T12:12:31;14.10;99.90
7290;DHT22;63176;52.678;13.250;2024-02-16T12:14:57;14.10;99.90
7290;DHT22;63176;52.678;13.250;2024-02-16T12:17:24;14.10;99.90
7290;DHT22;63176;52.678;13.250;2024-02-16T12:19:51;14.10;99.90
7290;DHT22;63176;52.678;13.250;2024-02-16T12:22:18;14.10;99.90
7290;DHT22;63176;52.678;13.250;2024-02-16T12:24:48;14.20;99.90
7290;DHT22;63176;52.678;13.250;2024-02-16T12:27:15;14.20;99.90
7290;DHT22;63176;52.678;13.250;2024-02-16T12:29:41;14.30;99.90
7290;DHT22;63176;52.678;13.250;2024-02-16T12:32:07;14.30;99.90
7290;DHT22;63176;52.678;13.250;2024-02-16T12:34:35;14.40;99.90
7290;DHT22;63176;52.678;13.250;2024-02-16T12:37:07;14.40;99.90
7290;DHT22;63176;52.678;13.250;2024-02-16T12:39:36;14.50;99.90
7290;DHT22;63176;52.678;13.250;2024-02-16T12:42:02;14.60;99.90
7290;DHT22;63176;52.678;13.250;2024-02-16T12:44:28;14.60;99.90
7290;DHT22;63176;52.678;13.250;2024-02-16T12:46:54;14.60;99.90
7290;DHT22;63176;52.678;13.250;2024-02-16T12:49:19;14.70;99.90
7290;DHT22;63176;52.678;13.250;2024-02-16T12:51:50;14.70;99.90
7290;DHT22;63176;52.678;13.250;2024-02-16T12:54:19;14.70;99.90
7290;DHT22;63176;52.678;13.250;2024-02-16T12:56:45;14.70;99.90
7290;DHT22;63176;52.678;13.250;2024-02-16T12:59:11;14.70;99.90
7290;DHT22;63176;52.678;13.250;2024-02-16T13:01:37;14.70;99.90
7290;DHT22;63176;52.678;13.250;2024-02-16T13:04:03;14.70;99.90
7290;DHT22;63176;52.678;13.250;2024-02-16T13:06:30;14.70;99.90
7290;DHT22;63176;52.678;13.250;2024-02-16T13:08:55;14.70;99.90
7290;DHT22;63176;52.678;13.250;2024-02-16T13:11:21;14.60;99.90
7290;DHT22;63176;52.678;13.250;2024-02-16T13:13:46;14.60;99.90
7290;DHT22;63176;52.678;13.250;2024-02-16T13:16:12;14.70;99.90
7290;DHT22;63176;52.678;13.250;2024-02-16T13:18:37;14.70;99.90
7290;DHT22;63176;52.678;13.250;2024-02-16T13:21:03;14.70;99.90
7290;DHT22;63176;52.678;13.250;2024-02-16T13:23:29;14.80;99.90
7290;DHT22;63176;52.678;13.250;2024-02-16T13:25:56;15.00;99.90
7290;DHT22;63176;52.678;13.250;2024-02-16T13:28:22;15.10;99.90
7290;DHT22;63176;52.678;13.250;2024-02-16T13:30:47;15.20;99.90
7290;DHT22;63176;52.678;13.250;2024-02-16T13:33:13;15.30;99.90
7290;DHT22;63176;52.678;13.250;2024-02-16T13:35:39;15.40;99.90
7290;DHT22;63176;52.678;13.250;2024-02-16T13:38:05;15.40;99.90
7290;DHT22;63176;52.678;13.250;2024-02-16T13:40:30;15.50;99.90
7290;DHT22;63176;52.678;13.250;2024-02-16T13:42:56;15.40;99.90
7290;DHT22;63176;52.678;13.250;2024-02-16T13:45:45;15.40;99.90
7290;DHT22;63176;52.678;13.250;2024-02-16T13:48:12;15.40;99.90
7290;DHT22;63176;52.678;13.250;2024-02-16T13:50:38;15.40;99.90
7290;DHT22;63176;52.678;13.250;2024-02-16T13:53:04;15.40;99.90
7290;DHT22;63176;52.678;13.250;2024-02-16T13:55:30;15.40;99.90
7290;DHT22;63176;52.678;13.250;2024-02-16T13:57:55;15.40;99.90
7290;DHT22;63176;52.678;13.250;2024-02-16T14:00:21;15.30;99.90
7290;DHT22;63176;52.678;13.250;2024-02-16T14:02:46;15.20;99.90
7290;DHT22;63176;52.678;13.250;2024-02-16T14:05:12;15.30;99.90
7290;DHT22;63176;52.678;13.250;2024-02-16T14:07:38;15.30;99.90
7290;DHT22;63176;52.678;13.250;2024-02-16T14:10:03;15.20;99.90
7290;DHT22;63176;52.678;13.250;2024-02-16T14:12:29;15.20;99.90
7290;DHT22;63176;52.678;13.250;2024-02-16T14:14:55;15.20;99.90
7290;DHT22;63176;52.678;13.250;2024-02-16T14:17:21;15.20;99.90
7290;DHT22;63176;52.678;13.250;2024-02-16T14:19:46;15.20;99.90
7290;DHT22;63176;52.678;13.250;2024-02-16T14:22:12;15.10;99.90
7290;DHT22;63176;52.678;13.250;2024-02-16T14:24:37;15.10;99.90
7290;DHT22;63176;52.678;13.250;2024-02-16T14:27:03;15.00;99.90
7290;DHT22;63176;52.678;13.250;2024-02-16T14:29:30;15.00;99.90
7290;DHT22;63176;52.678;13.250;2024-02-16T14:31:55;15.00;99.90
7290;DHT22;63176;52.678;13.250;2024-02-16T14:34:21;14.90;99.90
7290;DHT22;63176;52.678;13.250;2024-02-16T14:36:47;14.80;99.90
7290;DHT22;63176;52.678;13.250;2024-02-16T14:39:13;14.80;99.90
7290;DHT22;63176;52.678;13.250;2024-02-16T14:41:38;14.80;99.90
7290;DHT22;63176;52.678;13.250;2024-02-16T14:44:04;14.70;99.90
7290;DHT22;63176;52.678;13.250;2024-02-16T14:46:30;14.70;99.90
7290;DHT22;63176;52.678;13.250;2024-02-16T14:48:55;14.70;99.90
7290;DHT22;63176;52.678;13.250;2024-02-16T14:51:21;14.60;99.90
7290;DHT22;63176;52.678;13.250;2024-02-16T14:53:46;14.60;99.90
7290;DHT22;63176;52.678;13.250;2024-02-16T14:56:12;14.60;99.90
7290;DHT22;63176;52.678;13.250;2024-02-16T14:58:38;14.50;99.90
7290;DHT22;63176;52.678;13.250;2024-02-16T15:01:04;14.50;99.90
7290;DHT22;63176;52.678;13.250;2024-02-16T15:03:29;14.50;99.90
7290;DHT22;63176;52.678;13.250;2024-02-16T15:05:56;14.50;99.90
7290;DHT22;63176;52.678;13.250;2024-02-16T15:08:21;14.40;99.90
7290;DHT22;63176;52.678;13.250;2024-02-16T15:10:47;14.40;99.90
7290;DHT22;63176;52.678;13.250;2024-02-16T15:13:14;14.40;99.90
7290;DHT22;63176;52.678;13.250;2024-02-16T15:15:40;14.40;99.90
7290;DHT22;63176;52.678;13.250;2024-02-16T15:18:06;14.40;99.90
7290;DHT22;63176;52.678;13.250;2024-02-16T15:20:31;14.40;99.90
7290;DHT22;63176;52.678;13.250;2024-02-16T15:22:57;14.40;99.90
7290;DHT22;63176;52.678;13.250;2024-02-16T15:25:23;14.40;99.90
7290;DHT22;63176;52.678;13.250;2024-02-16T15:27:49;14.30;99.90
7290;DHT22;63176;52.678;13.250;2024-02-16T15:30:18;14.30;99.90
7290;DHT22;63176;52.678;13.250;2024-02-16T15:32:43;14.30;99.90
7290;DHT22;63176;52.678;13.250;2024-02-16T15:35:09;14.30;99.90
7290;DHT22;63176;52.678;13.250;2024-02-16T15:37:35;14.30;99.90
7290;DHT22;63176;52.678;13.250;2024-02-16T15:40:01;14.30;99.90
7290;DHT22;63176;52.678;13.250;2024-02-16T15:42:27;14.30;99.90